Time,TemperatureF,DewpointF,PressureIn,WindDirection,WindDirectionDegrees,WindSpeedMPH,WindSpeedGustMPH,Humidity,HourlyPrecipIn,Conditions,Clouds,dailyrainin,SolarRadiationWatts/m^2,SoftwareType,DateUTC
2013-01-08 00:00:00,28.0,20.0,-100.00,SW,225,8.0,-999.0,71,-99.99,,,-99.99,0.000000,,2013-01-08 05:00:00,
2013-01-08 00:33:00,28.0,20.0,-100.00,SW,225,8.0,-999.0,71,-99.99,,,-99.99,0.000000,,2013-01-08 05:33:00,
2013-01-08 00:43:00,28.0,20.0,-100.00,SW,225,8.0,-999.0,71,-99.99,,,-99.99,0.000000,,2013-01-08 05:43:00,
2013-01-08 00:53:00,28.0,20.0,-100.00,SW,225,8.0,-999.0,71,-99.99,,,-99.99,0.000000,,2013-01-08 05:53:00,
2013-01-08 01:00:00,27.0,20.0,-100.00,SW,225,7.0,-999.0,71,-99.99,,,-99.99,0.000000,,2013-01-08 06:00:00,
2013-01-08 01:33:00,27.0,20.0,-100.00,SW,225,7.0,-999.0,71,-99.99,,,-99.99,0.000000,,2013-01-08 06:33:00,
2013-01-08 01:43:00,27.0,20.0,-100.00,SW,225,7.0,-999.0,71,-99.99,,,-99.99,0.000000,,2013-01-08 06:43:00,
2013-01-08 01:53:00,27.0,20.0,-100.00,SW,225,7.0,-999.0,71,-99.99,,,-99.99,0.000000,,2013-01-08 06:53:00,
2013-01-08 02:00:00,27.0,20.0,-100.00,SW,225,7.0,-999.0,72,-99.99,,,-99.99,0.000000,,2013-01-08 07:00:00,
2013-01-08 02:42:00,27.0,20.0,-100.00,SW,225,7.0,-999.0,72,-99.99,,,-99.99,0.000000,,2013-01-08 07:42:00,
2013-01-08 02:52:00,27.0,20.0,-100.00,SW,225,7.0,-999.0,72,-99.99,,,-99.99,0.000000,,2013-01-08 07:52:00,
2013-01-08 03:00:00,27.0,20.0,-100.00,SSW,202,6.0,-999.0,74,-99.99,,,-99.99,0.000000,,2013-01-08 08:00:00,
2013-01-08 03:42:00,27.0,20.0,-100.00,SSW,202,6.0,-999.0,74,-99.99,,,-99.99,0.000000,,2013-01-08 08:42:00,
2013-01-08 03:53:00,27.0,20.0,-100.00,SSW,202,6.0,-999.0,74,-99.99,,,-99.99,0.000000,,2013-01-08 08:53:00,
2013-01-08 04:00:00,26.0,20.0,-100.00,SSW,202,5.0,-999.0,76,-99.99,,,-99.99,0.000000,,2013-01-08 09:00:00,
2013-01-08 04:42:00,26.0,20.0,-100.00,SSW,202,5.0,-999.0,76,-99.99,,,-99.99,0.000000,,2013-01-08 09:42:00,
2013-01-08 04:53:00,26.0,20.0,-100.00,SSW,202,5.0,-999.0,76,-99.99,,,-99.99,0.000000,,2013-01-08 09:53:00,
2013-01-08 05:00:00,25.0,19.0,-100.00,SSW,202,5.0,-999.0,78,-99.99,,,-99.99,0.000000,,2013-01-08 10:00:00,
2013-01-08 05:43:00,25.0,19.0,-100.00,SSW,202,5.0,-999.0,78,-99.99,,,-99.99,0.000000,,2013-01-08 10:43:00,
2013-01-08 05:53:00,25.0,19.0,-100.00,SSW,202,5.0,-999.0,78,-99.99,,,-99.99,0.000000,,2013-01-08 10:53:00,
2013-01-08 06:00:00,26.0,20.0,-100.00,SSW,202,6.0,-999.0,78,-99.99,,,-99.99,0.000000,,2013-01-08 11:00:00,
2013-01-08 06:43:00,26.0,20.0,-100.00,SSW,202,6.0,-999.0,78,-99.99,,,-99.99,0.000000,,2013-01-08 11:43:00,
2013-01-08 06:53:00,26.0,20.0,-100.00,SSW,202,6.0,-999.0,78,-99.99,,,-99.99,0.000000,,2013-01-08 11:53:00,
2013-01-08 07:00:00,26.0,20.0,-100.00,SSW,202,4.0,-999.0,79,-99.99,,,-99.99,0.000000,,2013-01-08 12:00:00,
2013-01-08 07:33:00,26.0,20.0,-100.00,SSW,202,4.0,-999.0,79,-99.99,,,-99.99,0.000000,,2013-01-08 12:33:00,
2013-01-08 07:43:00,26.0,20.0,-100.00,SSW,202,4.0,-999.0,79,-99.99,,,-99.99,0.000000,,2013-01-08 12:43:00,
2013-01-08 07:53:00,26.0,20.0,-100.00,SSW,202,4.0,-999.0,79,-99.99,,,-99.99,0.000000,,2013-01-08 12:53:00,
2013-01-08 08:00:00,24.0,20.0,-100.00,SE,135,0.0,-999.0,82,-99.99,,,-99.99,0.000000,,2013-01-08 13:00:00,
2013-01-08 08:43:00,24.0,20.0,-100.00,SE,135,0.0,-999.0,82,-99.99,,,-99.99,0.000000,,2013-01-08 13:43:00,
2013-01-08 08:53:00,24.0,20.0,-100.00,SE,135,0.0,-999.0,82,-99.99,,,-99.99,0.000000,,2013-01-08 13:53:00,
2013-01-08 09:00:00,23.0,19.0,-100.00,SSE,157,1.0,-999.0,86,-99.99,,,-99.99,11.600000,,2013-01-08 14:00:00,
2013-01-08 09:43:00,23.0,19.0,-100.00,SSE,157,1.0,-999.0,86,-99.99,,,-99.99,11.600000,,2013-01-08 14:43:00,
2013-01-08 09:53:00,23.0,19.0,-100.00,SSE,157,1.0,-999.0,86,-99.99,,,-99.99,11.600000,,2013-01-08 14:53:00,
2013-01-08 10:00:00,25.0,21.0,-100.00,South,180,2.0,-999.0,82,-99.99,,,-99.99,58.000000,,2013-01-08 15:00:00,
2013-01-08 10:43:00,25.0,21.0,-100.00,South,180,2.0,-999.0,82,-99.99,,,-99.99,58.000000,,2013-01-08 15:43:00,
2013-01-08 10:53:00,25.0,21.0,-100.00,South,180,2.0,-999.0,82,-99.99,,,-99.99,58.000000,,2013-01-08 15:53:00,
2013-01-08 11:00:00,27.0,21.0,-100.00,South,180,3.0,-999.0,79,-99.99,,,-99.99,129.919998,,2013-01-08 16:00:00,
2013-01-08 11:43:00,27.0,21.0,-100.00,South,180,3.0,-999.0,79,-99.99,,,-99.99,129.919998,,2013-01-08 16:43:00,
2013-01-08 11:53:00,27.0,21.0,-100.00,South,180,3.0,-999.0,79,-99.99,,,-99.99,129.919998,,2013-01-08 16:53:00,
2013-01-08 12:00:00,30.0,23.0,-100.00,SSW,202,4.0,-999.0,74,-99.99,,,-99.99,223.880005,,2013-01-08 17:00:00,
2013-01-08 12:43:00,30.0,23.0,-100.00,SSW,202,4.0,-999.0,74,-99.99,,,-99.99,223.880005,,2013-01-08 17:43:00,
2013-01-08 12:54:00,30.0,23.0,-100.00,SSW,202,4.0,-999.0,74,-99.99,,,-99.99,223.880005,,2013-01-08 17:54:00,
2013-01-08 13:00:00,32.0,24.0,-100.00,South,180,4.0,-999.0,71,-99.99,,,-99.99,274.920013,,2013-01-08 18:00:00,
2013-01-08 13:43:00,32.0,24.0,-100.00,South,180,4.0,-999.0,71,-99.99,,,-99.99,274.920013,,2013-01-08 18:43:00,
2013-01-08 13:53:00,32.0,24.0,-100.00,South,180,4.0,-999.0,71,-99.99,,,-99.99,274.920013,,2013-01-08 18:53:00,
2013-01-08 14:00:00,33.0,24.0,-100.00,SSW,202,4.0,-999.0,69,-99.99,,,-99.99,207.639999,,2013-01-08 19:00:00,
2013-01-08 14:43:00,33.0,24.0,-100.00,SSW,202,4.0,-999.0,69,-99.99,,,-99.99,207.639999,,2013-01-08 19:43:00,
2013-01-08 14:53:00,33.0,24.0,-100.00,SSW,202,4.0,-999.0,69,-99.99,,,-99.99,207.639999,,2013-01-08 19:53:00,
2013-01-08 15:00:00,33.0,24.0,-100.00,SSE,157,2.0,-999.0,68,-99.99,,,-99.99,165.880005,,2013-01-08 20:00:00,
2013-01-08 15:43:00,33.0,24.0,-100.00,SSE,157,2.0,-999.0,68,-99.99,,,-99.99,165.880005,,2013-01-08 20:43:00,
2013-01-08 15:54:00,33.0,24.0,-100.00,SSE,157,2.0,-999.0,68,-99.99,,,-99.99,165.880005,,2013-01-08 20:54:00,
2013-01-08 16:00:00,34.0,25.0,-100.00,SE,135,2.0,-999.0,68,-99.99,,,-99.99,143.839996,,2013-01-08 21:00:00,
2013-01-08 16:43:00,34.0,25.0,-100.00,SE,135,2.0,-999.0,68,-99.99,,,-99.99,143.839996,,2013-01-08 21:43:00,
2013-01-08 16:53:00,34.0,25.0,-100.00,SE,135,2.0,-999.0,68,-99.99,,,-99.99,143.839996,,2013-01-08 21:53:00,
2013-01-08 17:00:00,34.0,25.0,-100.00,SE,135,1.0,-999.0,69,-99.99,,,-99.99,64.959999,,2013-01-08 22:00:00,
2013-01-08 17:43:00,34.0,25.0,-100.00,SE,135,1.0,-999.0,69,-99.99,,,-99.99,64.959999,,2013-01-08 22:43:00,
2013-01-08 17:53:00,34.0,25.0,-100.00,SE,135,1.0,-999.0,69,-99.99,,,-99.99,64.959999,,2013-01-08 22:53:00,
2013-01-08 18:00:00,34.0,24.0,-100.00,SSE,157,2.0,-999.0,68,-99.99,,,-99.99,5.800000,,2013-01-08 23:00:00,
2013-01-08 18:43:00,34.0,24.0,-100.00,SSE,157,2.0,-999.0,68,-99.99,,,-99.99,5.800000,,2013-01-08 23:43:00,
2013-01-08 18:53:00,34.0,24.0,-100.00,SSE,157,2.0,-999.0,68,-99.99,,,-99.99,5.800000,,2013-01-08 23:53:00,
2013-01-08 19:00:00,33.0,24.0,-100.00,South,180,3.0,-999.0,68,-99.99,,,-99.99,0.000000,,2013-01-09 00:00:00,
2013-01-08 19:43:00,33.0,24.0,-100.00,South,180,3.0,-999.0,68,-99.99,,,-99.99,0.000000,,2013-01-09 00:43:00,
2013-01-08 19:53:00,33.0,24.0,-100.00,South,180,3.0,-999.0,68,-99.99,,,-99.99,0.000000,,2013-01-09 00:53:00,
2013-01-08 20:00:00,32.0,23.0,-100.00,South,180,3.0,-999.0,71,-99.99,,,-99.99,0.000000,,2013-01-09 01:00:00,
2013-01-08 20:43:00,32.0,23.0,-100.00,South,180,3.0,-999.0,71,-99.99,,,-99.99,0.000000,,2013-01-09 01:43:00,
2013-01-08 20:53:00,32.0,23.0,-100.00,South,180,3.0,-999.0,71,-99.99,,,-99.99,0.000000,,2013-01-09 01:53:00,
2013-01-08 21:00:00,31.0,23.0,-100.00,South,180,4.0,-999.0,72,-99.99,,,-99.99,0.000000,,2013-01-09 02:00:00,
2013-01-08 21:43:00,31.0,23.0,-100.00,South,180,4.0,-999.0,72,-99.99,,,-99.99,0.000000,,2013-01-09 02:43:00,
2013-01-08 21:53:00,31.0,23.0,-100.00,South,180,4.0,-999.0,72,-99.99,,,-99.99,0.000000,,2013-01-09 02:53:00,
2013-01-08 22:00:00,30.0,23.0,-100.00,South,180,4.0,-999.0,73,-99.99,,,-99.99,0.000000,,2013-01-09 03:00:00,
2013-01-08 22:43:00,30.0,23.0,-100.00,South,180,4.0,-999.0,73,-99.99,,,-99.99,0.000000,,2013-01-09 03:43:00,
2013-01-08 22:53:00,30.0,23.0,-100.00,South,180,4.0,-999.0,73,-99.99,,,-99.99,0.000000,,2013-01-09 03:53:00,
2013-01-08 23:00:00,31.0,23.0,-100.00,South,180,4.0,-999.0,72,-99.99,,,-99.99,0.000000,,2013-01-09 04:00:00,
2013-01-08 23:43:00,31.0,23.0,-100.00,South,180,4.0,-999.0,72,-99.99,,,-99.99,0.000000,,2013-01-09 04:43:00,
2013-01-08 23:53:00,31.0,23.0,-100.00,South,180,4.0,-999.0,72,-99.99,,,-99.99,0.000000,,2013-01-09 04:53:00,